createdAt,value
2022-12-08T00:02:11.151Z,70.41
2022-12-08T00:07:39.955Z,71.02
2022-12-08T00:12:36.920Z,71.17
2022-12-08T00:17:33.689Z,70.97
2022-12-08T00:22:32.474Z,71.02
2022-12-08T00:27:29.225Z,70.95
2022-12-08T00:32:34.848Z,71.18
2022-12-08T00:37:31.697Z,71.40
2022-12-08T00:42:28.575Z,71.26
2022-12-08T00:47:25.489Z,71.36
2022-12-08T00:52:22.207Z,71.74
2022-12-08T00:57:19.137Z,71.86
2022-12-08T01:02:24.794Z,72.14
2022-12-08T01:07:21.509Z,72.31
2022-12-08T01:12:18.460Z,72.13
2022-12-08T01:17:24.477Z,72.40
2022-12-08T01:22:21.429Z,72.43
2022-12-08T01:27:18.109Z,72.42
2022-12-08T01:32:14.778Z,72.43
2022-12-08T01:37:12.786Z,72.58
2022-12-08T01:42:21.429Z,72.73
2022-12-08T01:47:18.313Z,72.71
2022-12-08T01:52:21.472Z,72.50
2022-12-08T01:57:23.737Z,72.93
2022-12-08T02:02:21.983Z,72.86
2022-12-08T02:07:18.935Z,72.86
2022-12-08T02:12:21.680Z,72.87
2022-12-08T02:17:31.748Z,72.68
2022-12-08T02:28:13.011Z,72.34
2022-12-08T02:33:50.001Z,72.91
2022-12-08T02:39:00.451Z,72.41
2022-12-08T02:44:39.114Z,73.06
2022-12-08T02:49:36.246Z,72.67
2022-12-08T02:54:32.896Z,72.69
2022-12-08T02:59:51.003Z,72.77
2022-12-08T03:05:06.345Z,72.93
2022-12-08T03:10:12.999Z,73.24
2022-12-08T03:15:14.580Z,72.93
2022-12-08T03:20:26.790Z,72.96
2022-12-08T03:25:29.520Z,73.08
2022-12-08T03:30:28.801Z,73.32
2022-12-08T03:35:30.206Z,73.45
2022-12-08T03:40:27.041Z,73.54
2022-12-08T03:45:23.797Z,73.60
2022-12-08T03:50:20.648Z,73.35
2022-12-08T03:55:17.530Z,73.53
2022-12-08T04:00:16.819Z,73.46
2022-12-08T04:05:13.708Z,73.02
2022-12-08T04:10:12.974Z,73.17
2022-12-08T04:15:10.799Z,73.30
2022-12-08T04:20:07.849Z,73.45
2022-12-08T04:25:05.102Z,73.32
2022-12-08T04:30:04.338Z,73.29
2022-12-08T04:35:01.181Z,73.28
2022-12-08T04:39:57.798Z,73.33
2022-12-08T04:45:05.593Z,73.66
2022-12-08T04:50:02.879Z,73.56
2022-12-08T04:54:59.741Z,73.35
2022-12-08T04:59:56.681Z,73.24
2022-12-08T05:04:56.478Z,73.41
2022-12-08T05:09:53.425Z,73.49
2022-12-08T05:14:50.267Z,73.42
2022-12-08T05:19:50.291Z,73.46
2022-12-08T05:24:47.953Z,73.51
2022-12-08T05:29:50.543Z,73.53
2022-12-08T05:46:49.509Z,73.25
2022-12-08T06:26:26.824Z,73.27
2022-12-08T06:31:25.063Z,73.03
2022-12-08T06:36:24.197Z,73.16
2022-12-08T06:41:21.244Z,73.62
2022-12-08T06:46:19.095Z,73.53
2022-12-08T08:34:18.703Z,73.62
2022-12-08T08:39:15.331Z,73.54
2022-12-08T08:44:14.845Z,73.76
2022-12-08T11:43:30.003Z,73.06
2022-12-08T11:48:34.697Z,72.97
2022-12-08T11:54:08.942Z,73.24
2022-12-08T11:59:26.582Z,72.99
2022-12-08T12:04:48.136Z,72.60
2022-12-08T12:10:24.622Z,72.60
2022-12-08T12:16:11.610Z,73.00
2022-12-08T12:28:11.006Z,73.04
2022-12-08T12:33:25.923Z,72.88
2022-12-08T12:43:42.242Z,73.19
2022-12-08T12:48:49.312Z,72.65
2022-12-08T13:15:40.153Z,72.68
2022-12-08T13:21:17.834Z,72.97
2022-12-08T13:26:17.989Z,72.85
2022-12-08T14:08:59.933Z,72.49
2022-12-08T14:13:51.386Z,72.72
2022-12-08T14:39:29.239Z,72.80
2022-12-08T14:44:31.347Z,72.72
2022-12-08T14:54:33.060Z,72.51
2022-12-08T14:59:31.274Z,72.66
2022-12-08T15:05:09.678Z,72.82
2022-12-08T15:10:27.174Z,72.69
2022-12-08T15:15:23.641Z,72.61
2022-12-08T15:20:33.384Z,72.79
2022-12-08T15:25:31.322Z,72.85
2022-12-08T15:30:28.512Z,73.02
2022-12-08T15:35:25.073Z,73.03
2022-12-08T15:40:23.052Z,73.35
2022-12-08T15:45:31.128Z,73.32
2022-12-08T15:50:28.200Z,73.28
2022-12-08T15:55:24.911Z,73.41
2022-12-08T16:06:20.203Z,73.38
2022-12-08T16:11:56.532Z,73.38
2022-12-08T16:16:43.425Z,73.46
2022-12-08T16:22:23.800Z,73.50
2022-12-08T16:32:16.751Z,73.25
2022-12-08T16:37:18.745Z,73.48
2022-12-08T16:42:35.943Z,73.55
2022-12-08T16:47:36.371Z,73.50
2022-12-08T16:52:34.608Z,73.42
2022-12-08T16:57:43.013Z,73.43
2022-12-08T17:02:41.260Z,73.11
2022-12-08T17:07:43.256Z,72.92
2022-12-08T17:12:40.538Z,72.83
2022-12-08T17:17:38.878Z,73.07
2022-12-08T17:22:38.437Z,72.84
2022-12-08T17:27:36.152Z,73.29
2022-12-08T17:32:32.879Z,73.08
2022-12-08T17:37:29.692Z,72.87
2022-12-08T17:42:29.703Z,72.74
2022-12-08T17:47:29.778Z,72.59
2022-12-08T17:52:28.680Z,73.00
2022-12-08T17:57:25.860Z,72.87
2022-12-08T18:02:25.130Z,72.82
2022-12-08T18:07:23.153Z,72.35
2022-12-08T18:12:24.001Z,72.55
2022-12-08T18:17:20.971Z,72.79
2022-12-08T18:22:17.855Z,73.06
2022-12-08T18:27:18.952Z,73.04
2022-12-08T18:32:15.859Z,73.38
2022-12-08T18:37:12.555Z,73.38
2022-12-08T18:42:23.531Z,73.29
2022-12-08T18:47:20.321Z,73.44
2022-12-08T18:57:22.488Z,73.27
2022-12-08T19:02:29.634Z,73.54
2022-12-08T19:07:27.271Z,73.80
2022-12-08T19:12:24.095Z,73.69
2022-12-08T19:17:21.172Z,73.60
2022-12-08T19:27:32.482Z,73.30
2022-12-08T19:32:30.953Z,73.19
2022-12-08T19:37:30.649Z,73.10
2022-12-08T19:42:46.210Z,73.26
2022-12-08T19:52:54.985Z,72.63
2022-12-08T19:57:52.482Z,72.59
2022-12-08T20:02:49.436Z,72.85
2022-12-08T20:13:19.468Z,72.83
2022-12-08T20:23:23.825Z,73.02
2022-12-08T20:28:20.891Z,73.15
2022-12-08T20:33:17.917Z,73.39
2022-12-08T20:38:14.786Z,73.05
2022-12-08T20:43:11.741Z,73.15
2022-12-08T20:48:14.372Z,73.05
2022-12-08T20:53:11.586Z,73.42
2022-12-08T20:58:08.736Z,73.47
2022-12-08T21:03:05.767Z,73.95
2022-12-08T21:08:02.668Z,74.07
2022-12-08T21:13:11.038Z,74.05
2022-12-08T21:18:08.338Z,73.93
2022-12-08T21:28:32.779Z,73.59
2022-12-08T21:39:15.814Z,73.81
2022-12-08T21:44:38.398Z,73.75
2022-12-08T21:49:43.484Z,73.95
2022-12-08T21:54:54.845Z,73.93
2022-12-08T22:00:06.977Z,73.47
2022-12-08T22:05:21.658Z,73.81
2022-12-08T22:10:29.591Z,73.42
2022-12-08T22:15:31.385Z,73.44
2022-12-08T22:20:29.450Z,73.60
2022-12-08T22:25:28.426Z,73.50
2022-12-08T22:30:38.851Z,73.85
2022-12-08T22:35:36.220Z,73.87
2022-12-08T22:40:33.324Z,73.62
2022-12-08T22:45:30.076Z,74.04
2022-12-08T22:50:27.458Z,73.79
2022-12-08T22:55:24.643Z,73.74
2022-12-08T23:00:21.729Z,73.53
2022-12-08T23:05:18.886Z,73.77
2022-12-08T23:10:19.003Z,73.37
2022-12-08T23:15:17.028Z,73.21
2022-12-08T23:20:17.703Z,73.35
2022-12-08T23:25:22.532Z,73.59
2022-12-08T23:30:27.828Z,73.32
2022-12-08T23:35:27.398Z,73.29
2022-12-08T23:40:24.744Z,73.23
2022-12-08T23:45:22.088Z,73.12
2022-12-08T23:50:19.887Z,73.38
2022-12-08T23:55:24.329Z,73.26
